Time;durP1;ratioP1;P1;durP2;ratioP2;P2;SDS_P1;SDS_P2;PMS_P1;PMS_P2;Temp;Humidity;BMP_temperature;BMP_pressure;BME280_temperature;BME280_humidity;BME280_pressure;Samples;Min_cycle;Max_cycle;Signal;HPM_P1;HPM_P2
2021/05/07 00:00:42;;;;;;;22.73;16.63;;;7.40;99.90;;;;;;5049129;28;20191;-82
2021/05/07 00:03:14;;;;;;;21.87;17.27;;;7.40;99.90;;;;;;5051250;28;20248;-82
2021/05/07 00:05:41;;;;;;;20.60;16.73;;;7.40;99.90;;;;;;5048532;28;20205;-83
2021/05/07 00:08:09;;;;;;;24.27;17.63;;;7.40;99.90;;;;;;5032424;28;20207;-82
2021/05/07 00:10:36;;;;;;;22.20;17.67;;;7.40;99.90;;;;;;5036509;28;20197;-82
2021/05/07 00:13:04;;;;;;;26.67;17.47;;;7.50;99.90;;;;;;5036585;28;20238;-82
2021/05/07 00:15:31;;;;;;;20.90;17.70;;;7.50;99.90;;;;;;5037443;28;20194;-83
2021/05/07 00:17:59;;;;;;;25.63;18.77;;;7.50;99.90;;;;;;5026444;28;20473;-81
2021/05/07 00:20:27;;;;;;;25.47;19.13;;;7.50;99.90;;;;;;5033379;28;20238;-82
2021/05/07 00:22:55;;;;;;;24.10;19.00;;;7.50;99.90;;;;;;5038157;28;20196;-80
2021/05/07 00:25:24;;;;;;;25.87;18.23;;;7.50;99.90;;;;;;5046258;28;20206;-81
2021/05/07 00:27:59;;;;;;;23.87;20.13;;;7.60;99.90;;;;;;5039713;28;20195;-80
2021/05/07 00:30:27;;;;;;;23.67;19.00;;;7.60;99.90;;;;;;5053032;28;20234;-79
2021/05/07 00:32:55;;;;;;;25.87;18.70;;;7.50;99.90;;;;;;5044942;28;21458;-80
2021/05/07 00:35:23;;;;;;;24.53;18.67;;;7.50;99.90;;;;;;5049305;28;20192;-82
2021/05/07 00:37:52;;;;;;;26.73;19.37;;;7.50;99.90;;;;;;5045064;28;20454;-80
2021/05/07 00:40:20;;;;;;;26.37;20.63;;;7.50;99.90;;;;;;5055109;28;20176;-83
2021/05/07 00:42:49;;;;;;;31.27;21.37;;;7.40;99.90;;;;;;5048060;28;20287;-80
2021/05/07 00:45:18;;;;;;;30.20;20.80;;;7.40;99.90;;;;;;5052424;28;20193;-82
2021/05/07 00:47:49;;;;;;;27.83;20.57;;;7.30;99.90;;;;;;5047770;28;20195;-82
2021/05/07 00:50:17;;;;;;;27.20;21.33;;;7.30;99.90;;;;;;5040952;28;20261;-81
2021/05/07 00:52:45;;;;;;;24.07;19.87;;;7.30;99.90;;;;;;5036139;28;20199;-81
2021/05/07 00:55:14;;;;;;;28.40;20.20;;;7.30;99.90;;;;;;5037716;28;20208;-81
2021/05/07 00:57:42;;;;;;;28.17;19.97;;;7.30;99.90;;;;;;5039870;28;20202;-81
2021/05/07 01:00:10;;;;;;;30.20;19.60;;;7.40;99.90;;;;;;5048004;28;20206;-80
2021/05/07 01:02:38;;;;;;;27.97;19.70;;;7.40;99.90;;;;;;5040136;28;20554;-85
2021/05/07 01:05:08;;;;;;;24.43;18.83;;;7.40;99.90;;;;;;5043568;28;20197;-83
2021/05/07 01:07:36;;;;;;;28.67;19.17;;;7.40;99.90;;;;;;5039950;28;20212;-83
2021/05/07 01:10:05;;;;;;;22.87;17.53;;;7.40;99.90;;;;;;5036219;28;21940;-83
2021/05/07 01:12:35;;;;;;;27.93;19.60;;;7.40;99.90;;;;;;5039120;28;20289;-80
2021/05/07 01:15:08;;;;;;;25.93;19.77;;;7.40;99.90;;;;;;5037567;28;20637;-82
2021/05/07 01:17:38;;;;;;;23.27;18.27;;;7.50;99.90;;;;;;5032084;28;20245;-82
2021/05/07 01:20:12;;;;;;;23.97;18.30;;;7.50;99.90;;;;;;5034465;28;20232;-83
2021/05/07 01:22:40;;;;;;;23.77;17.27;;;7.50;99.90;;;;;;5034708;28;20208;-81
2021/05/07 01:25:10;;;;;;;21.70;16.23;;;7.50;99.90;;;;;;5038157;28;20220;-82
2021/05/07 01:27:39;;;;;;;19.53;16.57;;;7.50;99.90;;;;;;5031695;28;20214;-82
2021/05/07 01:30:10;;;;;;;21.87;15.30;;;7.50;99.90;;;;;;5034022;28;20314;-80
2021/05/07 01:32:38;;;;;;;19.07;15.17;;;7.50;99.90;;;;;;5033306;28;20213;-81
2021/05/07 01:35:13;;;;;;;18.23;15.50;;;7.60;98.80;;;;;;5047878;28;20212;-82
2021/05/07 01:37:41;;;;;;;19.20;14.60;;;7.50;98.50;;;;;;5030454;28;20383;-82
2021/05/07 01:40:15;;;;;;;18.40;14.17;;;7.50;97.90;;;;;;5026269;28;20481;-82
2021/05/07 01:42:43;;;;;;;17.50;14.17;;;7.60;97.30;;;;;;5028829;28;20579;-83
2021/05/07 01:45:11;;;;;;;16.33;13.50;;;7.60;97.20;;;;;;5028702;28;20199;-82
2021/05/07 01:47:40;;;;;;;16.53;13.60;;;7.60;97.50;;;;;;5024351;28;20196;-80
2021/05/07 01:50:12;;;;;;;15.90;13.67;;;7.60;97.40;;;;;;5016393;28;20230;-80
2021/05/07 01:52:40;;;;;;;16.67;14.07;;;7.50;97.90;;;;;;5019929;28;20681;-80
2021/05/07 01:55:10;;;;;;;18.90;14.80;;;7.50;97.90;;;;;;5021596;28;20219;-84
2021/05/07 01:57:39;;;;;;;18.03;14.47;;;7.60;99.60;;;;;;5024467;28;20535;-83
2021/05/07 02:00:09;;;;;;;18.60;14.63;;;7.70;99.90;;;;;;5016017;28;20212;-81
2021/05/07 02:02:37;;;;;;;17.57;14.30;;;7.50;99.60;;;;;;5022782;28;20211;-80
2021/05/07 02:05:06;;;;;;;17.57;14.67;;;7.50;99.90;;;;;;5027027;28;20204;-82
2021/05/07 02:07:34;;;;;;;18.23;14.47;;;7.50;99.90;;;;;;5024639;28;20244;-81
2021/05/07 02:10:04;;;;;;;19.90;15.10;;;7.40;99.90;;;;;;5030696;28;20688;-80
2021/05/07 02:12:32;;;;;;;18.83;15.53;;;7.40;99.90;;;;;;5045707;28;20201;-83
2021/05/07 02:15:00;;;;;;;17.57;15.47;;;7.30;99.90;;;;;;5038824;28;20203;-82
2021/05/07 02:17:27;;;;;;;18.07;15.23;;;7.20;99.90;;;;;;5025059;28;20339;-81
2021/05/07 02:19:55;;;;;;;20.83;15.40;;;7.20;99.90;;;;;;5025926;28;20212;-82
2021/05/07 02:22:23;;;;;;;21.63;16.40;;;7.10;99.90;;;;;;5028279;28;20700;-83
2021/05/07 02:24:52;;;;;;;18.47;15.60;;;7.10;99.90;;;;;;5020833;28;20215;-81
2021/05/07 02:27:20;;;;;;;20.93;16.83;;;7.00;99.90;;;;;;5033691;28;20198;-83
2021/05/07 02:29:47;;;;;;;22.27;18.77;;;7.00;99.90;;;;;;5019537;28;20229;-80
2021/05/07 02:32:15;;;;;;;19.70;17.60;;;7.00;99.90;;;;;;5015167;28;20522;-83
2021/05/07 02:34:43;;;;;;;22.27;18.57;;;7.00;99.90;;;;;;5022028;28;20252;-84
2021/05/07 02:37:11;;;;;;;23.90;18.00;;;6.90;99.90;;;;;;5017778;28;20214;-81
2021/05/07 02:39:39;;;;;;;26.03;18.97;;;6.90;99.90;;;;;;5016456;28;20919;-80
2021/05/07 02:42:07;;;;;;;23.10;19.30;;;7.20;99.90;;;;;;5017522;28;20615;-82
2021/05/07 02:44:35;;;;;;;23.67;19.57;;;7.00;99.90;;;;;;5017856;28;20276;-80
2021/05/07 02:47:04;;;;;;;25.07;18.63;;;7.00;99.90;;;;;;5022496;28;20203;-82
2021/05/07 02:49:32;;;;;;;22.70;17.63;;;7.10;99.90;;;;;;5040230;28;20202;-81
2021/05/07 02:52:01;;;;;;;24.53;19.27;;;7.00;99.90;;;;;;5045700;28;20195;-83
2021/05/07 02:54:29;;;;;;;23.03;18.73;;;6.90;99.90;;;;;;5048766;28;20269;-81
2021/05/07 02:56:57;;;;;;;21.33;18.50;;;7.00;99.90;;;;;;5047155;28;20191;-81
2021/05/07 02:59:25;;;;;;;25.63;18.60;;;7.00;99.90;;;;;;5032671;28;20225;-82
2021/05/07 03:01:54;;;;;;;23.37;18.60;;;7.00;99.90;;;;;;5033837;28;20202;-81
2021/05/07 03:04:22;;;;;;;22.30;19.23;;;6.90;99.90;;;;;;5036550;28;20213;-83
2021/05/07 03:06:51;;;;;;;24.03;20.23;;;6.90;99.90;;;;;;5034405;28;20202;-82
2021/05/07 03:09:18;;;;;;;22.13;19.43;;;6.90;99.90;;;;;;5033419;28;20413;-81
2021/05/07 03:11:46;;;;;;;23.37;19.13;;;6.90;99.90;;;;;;5037201;28;20212;-82
2021/05/07 03:14:14;;;;;;;21.37;18.50;;;6.90;99.90;;;;;;5028651;28;20202;-83
2021/05/07 03:16:42;;;;;;;22.40;18.10;;;7.00;99.90;;;;;;5023054;28;20359;-83
2021/05/07 03:19:10;;;;;;;25.90;19.20;;;6.80;99.90;;;;;;5010630;28;20203;-83
2021/05/07 03:21:38;;;;;;;23.90;18.13;;;6.90;99.90;;;;;;5020832;28;20210;-81
2021/05/07 03:24:08;;;;;;;22.00;17.57;;;6.90;99.90;;;;;;5031725;28;20194;-83
2021/05/07 03:26:36;;;;;;;22.23;16.63;;;6.90;99.90;;;;;;5033893;28;20228;-81
2021/05/07 03:29:03;;;;;;;21.87;17.47;;;6.90;99.90;;;;;;5033194;28;20372;-83
2021/05/07 03:31:32;;;;;;;23.03;18.23;;;6.80;99.90;;;;;;5027539;28;20205;-84
2021/05/07 03:34:01;;;;;;;24.90;19.03;;;6.90;99.90;;;;;;5019937;28;20480;-84
2021/05/07 03:36:29;;;;;;;21.67;18.27;;;6.80;99.90;;;;;;5032110;28;20205;-83
2021/05/07 03:38:57;;;;;;;23.30;18.17;;;6.90;99.90;;;;;;5032586;28;20214;-82
2021/05/07 03:41:24;;;;;;;21.33;17.77;;;6.80;99.90;;;;;;5022423;28;20571;-82
2021/05/07 03:43:52;;;;;;;24.60;19.67;;;6.90;99.90;;;;;;5027601;28;20203;-84
2021/05/07 03:46:20;;;;;;;25.20;20.63;;;6.90;99.90;;;;;;5030588;28;20333;-82
2021/05/07 03:48:48;;;;;;;22.20;19.40;;;7.00;99.90;;;;;;5048393;28;20228;-84
2021/05/07 03:51:17;;;;;;;23.43;18.57;;;6.90;99.90;;;;;;5043258;28;21236;-81
2021/05/07 03:53:45;;;;;;;25.37;18.37;;;7.00;99.90;;;;;;5040891;28;20257;-82
2021/05/07 03:56:14;;;;;;;20.30;18.10;;;6.90;99.90;;;;;;5046087;28;20200;-81
2021/05/07 03:58:42;;;;;;;23.93;18.67;;;6.90;99.90;;;;;;5040746;28;20222;-80
2021/05/07 04:01:10;;;;;;;22.80;18.43;;;7.00;99.90;;;;;;5044079;28;20187;-82
2021/05/07 04:03:38;;;;;;;27.17;20.83;;;6.90;99.90;;;;;;5042951;28;20219;-82
2021/05/07 04:06:08;;;;;;;27.07;20.60;;;6.80;99.90;;;;;;5035479;28;20199;-79
2021/05/07 04:08:40;;;;;;;22.77;19.30;;;6.90;99.90;;;;;;5030592;28;20195;-83
2021/05/07 04:11:13;;;;;;;24.30;19.23;;;6.90;99.90;;;;;;5037822;28;20222;-81
2021/05/07 04:13:42;;;;;;;22.63;20.03;;;6.90;99.90;;;;;;5047531;28;20199;-84
2021/05/07 04:16:10;;;;;;;26.57;20.37;;;7.00;99.90;;;;;;5046613;28;20203;-82
2021/05/07 04:18:41;;;;;;;25.40;20.57;;;6.90;99.90;;;;;;5042890;28;20199;-80
2021/05/07 04:21:09;;;;;;;25.27;20.77;;;7.00;99.90;;;;;;5036398;28;20206;-83
2021/05/07 04:23:38;;;;;;;25.10;19.40;;;7.00;99.90;;;;;;5047920;28;20229;-81
2021/05/07 04:26:05;;;;;;;24.87;20.17;;;7.00;99.90;;;;;;5043307;28;20198;-81
2021/05/07 04:28:33;;;;;;;24.90;20.67;;;7.00;99.90;;;;;;5033301;28;20276;-82
2021/05/07 04:31:03;;;;;;;28.90;21.57;;;7.00;99.90;;;;;;5034103;28;20258;-81
2021/05/07 04:33:31;;;;;;;27.13;21.70;;;7.10;99.90;;;;;;5036340;28;20203;-80
2021/05/07 04:35:58;;;;;;;26.77;21.70;;;7.20;99.90;;;;;;5051731;28;20226;-82
2021/05/07 04:38:26;;;;;;;25.43;21.13;;;7.20;99.90;;;;;;5042765;28;20205;-83
2021/05/07 04:40:55;;;;;;;30.93;21.87;;;7.20;99.90;;;;;;5045587;28;20298;-83
2021/05/07 04:43:22;;;;;;;26.53;21.13;;;7.30;99.90;;;;;;5034682;28;20211;-83
2021/05/07 04:45:51;;;;;;;30.00;22.33;;;7.40;99.90;;;;;;5041220;28;20666;-80
2021/05/07 04:48:18;;;;;;;28.13;22.80;;;7.20;99.90;;;;;;5032783;28;20212;-80
2021/05/07 04:50:46;;;;;;;26.03;22.50;;;7.40;99.90;;;;;;5032540;28;20361;-81
2021/05/07 04:53:14;;;;;;;26.43;22.83;;;7.40;99.90;;;;;;5030209;28;20215;-79
2021/05/07 04:55:41;;;;;;;32.87;23.33;;;7.50;99.90;;;;;;5029515;28;20207;-81
2021/05/07 04:58:11;;;;;;;27.60;22.70;;;7.50;99.90;;;;;;5028925;28;20649;-80
2021/05/07 05:00:39;;;;;;;27.77;22.20;;;7.60;99.90;;;;;;5032050;28;20215;-81
2021/05/07 05:03:07;;;;;;;26.90;23.17;;;7.60;99.90;;;;;;5029605;28;20649;-81
2021/05/07 05:05:35;;;;;;;33.50;23.80;;;7.60;99.90;;;;;;5034605;28;20222;-81
2021/05/07 05:08:03;;;;;;;30.40;23.70;;;7.70;99.90;;;;;;5030486;28;20208;-80
2021/05/07 05:10:31;;;;;;;26.63;21.63;;;7.80;99.90;;;;;;5030470;28;20237;-80
2021/05/07 05:12:59;;;;;;;27.90;22.17;;;7.80;99.90;;;;;;5028077;28;20207;-83
2021/05/07 05:15:27;;;;;;;28.67;22.87;;;7.90;99.90;;;;;;5025396;28;20642;-83
2021/05/07 05:17:55;;;;;;;27.17;21.43;;;8.00;99.90;;;;;;5024316;28;20206;-81
2021/05/07 05:20:23;;;;;;;24.97;20.60;;;8.00;99.90;;;;;;5026510;28;20209;-82
2021/05/07 05:22:50;;;;;;;25.50;20.60;;;8.00;99.90;;;;;;5020803;28;20750;-84
2021/05/07 05:25:18;;;;;;;23.60;19.67;;;8.00;99.90;;;;;;5025209;28;20706;-84
2021/05/07 05:27:46;;;;;;;26.27;19.03;;;8.10;99.90;;;;;;5030784;28;20212;-83
2021/05/07 05:30:14;;;;;;;25.33;20.17;;;8.10;99.90;;;;;;5022579;28;20237;-83
2021/05/07 05:32:43;;;;;;;21.37;16.80;;;8.10;99.90;;;;;;5024162;28;20196;-81
2021/05/07 05:35:11;;;;;;;26.17;17.80;;;8.20;99.90;;;;;;5011611;28;20434;-83
2021/05/07 05:37:38;;;;;;;20.47;16.83;;;8.20;99.90;;;;;;5015836;28;20212;-81
2021/05/07 05:40:08;;;;;;;21.27;14.97;;;8.20;99.90;;;;;;5019915;28;20208;-81
2021/05/07 05:42:41;;;;;;;17.27;14.27;;;8.20;99.90;;;;;;5037048;28;20539;-83
2021/05/07 05:45:10;;;;;;;19.93;14.67;;;8.30;99.90;;;;;;5027322;28;20221;-84
2021/05/07 05:47:37;;;;;;;18.07;13.83;;;8.30;99.90;;;;;;5016844;28;20218;-83
2021/05/07 05:50:08;;;;;;;17.70;13.87;;;8.30;99.90;;;;;;5024010;28;20239;-82
2021/05/07 05:52:40;;;;;;;18.90;13.87;;;8.30;99.90;;;;;;5021893;28;20213;-83
2021/05/07 05:55:09;;;;;;;19.10;13.90;;;8.30;99.90;;;;;;5026959;28;20198;-82
2021/05/07 05:57:36;;;;;;;17.30;13.10;;;8.30;99.90;;;;;;5028293;28;20933;-83
2021/05/07 06:00:05;;;;;;;18.87;13.10;;;8.30;99.90;;;;;;5016175;28;20681;-82
2021/05/07 06:02:34;;;;;;;18.57;14.30;;;8.30;99.90;;;;;;5024718;28;20212;-82
2021/05/07 06:05:02;;;;;;;14.73;12.00;;;8.30;99.90;;;;;;5029870;28;20737;-84
2021/05/07 06:07:31;;;;;;;14.60;11.90;;;8.40;99.90;;;;;;5027535;28;20380;-83
2021/05/07 06:09:59;;;;;;;14.83;11.13;;;8.30;99.90;;;;;;5025562;28;20308;-84
2021/05/07 06:12:27;;;;;;;12.83;10.13;;;8.40;99.90;;;;;;5016988;28;20209;-80
2021/05/07 06:14:54;;;;;;;13.43;10.00;;;8.30;99.90;;;;;;5031556;28;20299;-82
2021/05/07 06:17:22;;;;;;;10.17;8.80;;;8.30;99.90;;;;;;5034595;28;20205;-81
2021/05/07 06:19:50;;;;;;;10.47;8.77;;;8.30;99.90;;;;;;5031043;28;20862;-80
2021/05/07 06:22:18;;;;;;;12.07;8.47;;;8.30;99.90;;;;;;5028904;28;20206;-80
2021/05/07 06:24:47;;;;;;;13.53;9.20;;;8.30;99.90;;;;;;5031273;28;20401;-84
2021/05/07 06:27:15;;;;;;;11.40;9.10;;;8.20;99.90;;;;;;5024877;28;20379;-85
2021/05/07 06:29:43;;;;;;;8.17;7.10;;;8.20;99.90;;;;;;5017841;28;20244;-83
2021/05/07 06:32:10;;;;;;;8.53;7.60;;;8.20;99.90;;;;;;5021620;28;20209;-84
2021/05/07 06:34:41;;;;;;;7.60;6.00;;;8.20;99.90;;;;;;5023027;28;20210;-82
2021/05/07 06:37:08;;;;;;;9.03;6.60;;;8.20;99.90;;;;;;5022943;28;20221;-81
2021/05/07 06:39:37;;;;;;;7.67;6.37;;;8.20;99.90;;;;;;5015282;28;20236;-83
2021/05/07 06:42:06;;;;;;;7.30;6.43;;;8.20;99.90;;;;;;5019407;28;20213;-85
2021/05/07 06:44:34;;;;;;;8.17;6.37;;;8.20;99.90;;;;;;5023815;28;20208;-82
2021/05/07 06:47:05;;;;;;;6.33;5.47;;;8.40;99.90;;;;;;5023770;28;20214;-82
2021/05/07 06:49:33;;;;;;;5.47;4.90;;;8.40;99.90;;;;;;5021940;28;20645;-82
2021/05/07 06:52:00;;;;;;;5.47;4.97;;;8.40;99.90;;;;;;5017305;28;20236;-81
2021/05/07 06:54:28;;;;;;;6.10;5.17;;;8.40;99.90;;;;;;5017188;28;20217;-82
2021/05/07 06:56:56;;;;;;;7.80;5.20;;;8.40;99.90;;;;;;5026788;28;20212;-81
2021/05/07 06:59:25;;;;;;;6.77;4.97;;;8.50;99.90;;;;;;5031468;28;20218;-86
2021/05/07 07:01:52;;;;;;;5.37;4.87;;;8.40;99.90;;;;;;5016691;28;20314;-84
2021/05/07 07:04:20;;;;;;;6.17;4.87;;;8.50;99.90;;;;;;5032663;28;20194;-85
2021/05/07 07:06:49;;;;;;;5.07;4.50;;;8.60;99.90;;;;;;5021068;28;20424;-81
2021/05/07 07:09:17;;;;;;;5.30;4.70;;;8.50;99.90;;;;;;5010188;28;21009;-85
2021/05/07 07:11:47;;;;;;;7.77;5.80;;;8.50;99.90;;;;;;5010790;28;20327;-85
2021/05/07 07:14:15;;;;;;;6.10;5.13;;;8.50;99.90;;;;;;5015482;28;20214;-84
2021/05/07 07:16:43;;;;;;;7.20;4.83;;;8.60;99.90;;;;;;5025119;28;20210;-84
2021/05/07 07:19:11;;;;;;;5.77;4.70;;;8.70;99.90;;;;;;5018196;28;20206;-83
2021/05/07 07:21:58;;;;;;;5.93;4.53;;;8.70;99.90;;;;;;5018174;28;21000;-83
2021/05/07 07:24:26;;;;;;;6.60;5.30;;;8.70;99.90;;;;;;5024499;28;20715;-86
2021/05/07 07:26:54;;;;;;;6.77;5.37;;;8.80;99.90;;;;;;5017411;28;20787;-83
2021/05/07 07:29:22;;;;;;;6.27;4.90;;;8.80;99.90;;;;;;5016957;28;20476;-83
2021/05/07 07:31:51;;;;;;;7.33;4.93;;;8.90;99.90;;;;;;5010451;28;20233;-82
2021/05/07 07:34:21;;;;;;;5.80;4.77;;;8.90;99.90;;;;;;5016251;28;20542;-83
2021/05/07 07:36:49;;;;;;;8.20;5.83;;;9.00;99.90;;;;;;5017828;28;20220;-81
2021/05/07 07:39:18;;;;;;;6.00;5.37;;;8.90;99.90;;;;;;5012218;28;20467;-82
2021/05/07 07:41:47;;;;;;;6.20;5.13;;;8.90;99.90;;;;;;5015923;28;20201;-84
2021/05/07 07:44:15;;;;;;;5.90;5.27;;;8.90;99.90;;;;;;5017119;28;20424;-84
2021/05/07 07:46:42;;;;;;;7.07;5.53;;;8.90;99.90;;;;;;5018830;28;20232;-83
2021/05/07 07:49:12;;;;;;;6.40;5.77;;;8.90;99.90;;;;;;5009773;28;20751;-83
2021/05/07 07:51:40;;;;;;;9.00;6.17;;;8.90;99.90;;;;;;5006661;28;20236;-84
2021/05/07 07:54:11;;;;;;;5.87;5.07;;;8.90;99.90;;;;;;5005402;28;21274;-84
2021/05/07 07:56:39;;;;;;;6.30;5.43;;;8.80;99.90;;;;;;5011607;28;20216;-83
2021/05/07 07:59:07;;;;;;;7.83;6.03;;;8.70;99.90;;;;;;5003183;28;20848;-85
2021/05/07 08:01:35;;;;;;;11.53;9.60;;;8.70;99.90;;;;;;5008709;28;20213;-81
2021/05/07 08:04:03;;;;;;;11.57;10.00;;;8.70;99.90;;;;;;5031697;28;20203;-84
2021/05/07 08:06:33;;;;;;;10.53;9.10;;;8.70;99.90;;;;;;5018903;28;20577;-81
2021/05/07 08:09:01;;;;;;;11.40;10.20;;;8.50;99.10;;;;;;5008612;28;20217;-84
2021/05/07 08:11:29;;;;;;;13.07;10.70;;;8.10;99.90;;;;;;5010298;28;20766;-83
2021/05/07 08:13:57;;;;;;;11.57;10.20;;;7.90;99.90;;;;;;5015538;28;20204;-80
2021/05/07 08:16:25;;;;;;;10.73;9.33;;;7.80;99.90;;;;;;5005234;28;20210;-85
2021/05/07 08:18:53;;;;;;;13.87;11.40;;;7.70;99.90;;;;;;5007188;28;20855;-86
2021/05/07 08:21:22;;;;;;;11.53;10.30;;;7.70;99.90;;;;;;5008246;28;20208;-80
2021/05/07 08:23:51;;;;;;;10.47;8.87;;;7.60;99.90;;;;;;5016692;28;20266;-85
2021/05/07 08:26:19;;;;;;;11.03;9.50;;;7.50;99.90;;;;;;5020267;28;20208;-82
2021/05/07 08:28:47;;;;;;;9.07;7.77;;;7.50;99.90;;;;;;5019708;28;20413;-83
2021/05/07 08:31:14;;;;;;;10.43;8.33;;;7.50;99.90;;;;;;5012957;28;20341;-82
2021/05/07 08:33:42;;;;;;;10.20;8.93;;;7.50;99.90;;;;;;5004714;28;20213;-81
2021/05/07 08:36:10;;;;;;;11.47;10.27;;;7.50;99.90;;;;;;5005067;28;20204;-79
2021/05/07 08:38:37;;;;;;;9.30;8.33;;;7.50;99.90;;;;;;5006752;28;20234;-80
2021/05/07 08:41:06;;;;;;;11.27;9.40;;;7.50;99.90;;;;;;5026527;28;20210;-82
2021/05/07 08:43:34;;;;;;;10.63;9.53;;;7.50;99.90;;;;;;5015669;28;20223;-83
2021/05/07 08:46:04;;;;;;;10.30;8.10;;;7.50;99.90;;;;;;5028397;28;20239;-83
2021/05/07 08:48:33;;;;;;;8.20;7.40;;;7.50;99.90;;;;;;5016206;28;20237;-81
2021/05/07 08:51:01;;;;;;;8.53;7.73;;;7.50;99.90;;;;;;5019901;28;20283;-81
2021/05/07 08:53:30;;;;;;;8.53;7.67;;;7.50;99.90;;;;;;5019927;28;20199;-82
2021/05/07 08:56:01;;;;;;;7.97;7.13;;;7.60;99.90;;;;;;5019548;28;20337;-82
2021/05/07 08:58:30;;;;;;;7.03;6.40;;;7.70;99.90;;;;;;5003538;28;20228;-80
2021/05/07 09:00:57;;;;;;;7.33;5.87;;;7.90;99.90;;;;;;5015187;28;20304;-81
2021/05/07 09:03:25;;;;;;;7.13;4.37;;;7.90;99.90;;;;;;5029909;28;20213;-82
2021/05/07 09:05:53;;;;;;;6.20;5.60;;;8.10;99.90;;;;;;5022321;28;21002;-81
2021/05/07 09:08:30;;;;;;;5.80;5.30;;;8.20;99.90;;;;;;5014742;28;20216;-83
2021/05/07 09:11:01;;;;;;;6.73;4.90;;;8.30;99.50;;;;;;5004275;28;20230;-81
2021/05/07 09:13:30;;;;;;;4.00;3.00;;;8.30;96.30;;;;;;5010941;28;20722;-81
2021/05/07 09:16:05;;;;;;;5.60;4.03;;;8.30;95.10;;;;;;5008622;28;20206;-84
2021/05/07 09:18:41;;;;;;;5.17;4.60;;;8.30;94.90;;;;;;5002746;28;20770;-82
2021/05/07 09:21:09;;;;;;;4.40;4.00;;;8.50;95.30;;;;;;5008548;28;20216;-82
2021/05/07 09:23:42;;;;;;;4.27;3.97;;;8.60;94.90;;;;;;5013362;28;20222;-80
2021/05/07 09:26:10;;;;;;;5.10;4.60;;;8.70;93.20;;;;;;5027373;28;20218;-83
2021/05/07 09:28:39;;;;;;;4.67;4.27;;;8.80;94.60;;;;;;4998121;28;20336;-82
2021/05/07 09:31:11;;;;;;;5.17;4.50;;;8.70;94.00;;;;;;5008276;28;20632;-84
2021/05/07 09:33:42;;;;;;;4.80;4.40;;;8.70;94.10;;;;;;5007401;28;20218;-80
2021/05/07 09:36:21;;;;;;;4.90;4.50;;;8.80;94.30;;;;;;5010287;28;20721;-82
2021/05/07 09:38:49;;;;;;;4.40;4.00;;;8.80;92.40;;;;;;5000233;28;20214;-83
2021/05/07 09:41:39;;;;;;;2.70;2.50;;;8.80;93.10;;;;;;5002100;28;21015;-82
2021/05/07 09:44:15;;;;;;;4.57;4.17;;;8.80;92.00;;;;;;5005858;28;20297;-81
2021/05/07 09:46:42;;;;;;;4.57;4.17;;;8.90;93.10;;;;;;5009551;28;20415;-82
2021/05/07 09:49:21;;;;;;;4.50;3.50;;;9.00;92.10;;;;;;4998603;28;20728;-79
2021/05/07 09:51:49;;;;;;;4.93;3.90;;;8.90;92.50;;;;;;5007397;28;20509;-83
2021/05/07 09:54:17;;;;;;;4.40;4.00;;;9.00;92.40;;;;;;5015883;28;20213;-82
2021/05/07 09:56:45;;;;;;;3.80;3.50;;;8.90;92.50;;;;;;5011932;28;20210;-82
2021/05/07 09:59:14;;;;;;;3.90;3.60;;;8.90;92.70;;;;;;5009571;28;20702;-80
2021/05/07 10:01:44;;;;;;;3.70;3.40;;;9.00;91.70;;;;;;5020174;28;20297;-82
2021/05/07 10:04:12;;;;;;;3.20;2.00;;;9.10;91.90;;;;;;5022386;28;20261;-81
2021/05/07 10:06:40;;;;;;;2.30;2.10;;;9.10;90.00;;;;;;5024951;28;20530;-79
2021/05/07 10:09:09;;;;;;;2.70;1.70;;;9.00;90.00;;;;;;5007446;28;20202;-80
2021/05/07 10:11:39;;;;;;;2.17;1.97;;;8.90;90.00;;;;;;5006087;28;20308;-80
2021/05/07 10:14:10;;;;;;;2.27;2.07;;;8.90;90.10;;;;;;5005465;28;21204;-83
2021/05/07 10:16:39;;;;;;;2.73;2.53;;;8.90;90.60;;;;;;5001095;28;20202;-79
2021/05/07 10:19:10;;;;;;;2.43;2.23;;;9.00;90.70;;;;;;5008500;28;20608;-81
2021/05/07 10:21:40;;;;;;;2.67;2.40;;;9.00;90.70;;;;;;5012776;28;20198;-80
2021/05/07 10:24:09;;;;;;;3.33;2.30;;;8.70;90.70;;;;;;5016839;28;20469;-81
2021/05/07 10:26:39;;;;;;;2.60;2.40;;;8.60;91.50;;;;;;5005407;28;20203;-81
2021/05/07 10:29:18;;;;;;;3.30;2.30;;;8.60;90.70;;;;;;5000342;28;20210;-80
2021/05/07 10:31:48;;;;;;;2.37;2.17;;;8.60;91.20;;;;;;5001816;28;20236;-81
2021/05/07 10:34:17;;;;;;;2.47;2.30;;;8.60;91.40;;;;;;5005092;28;20199;-80
2021/05/07 10:36:59;;;;;;;4.33;2.80;;;8.40;91.40;;;;;;5010668;28;20201;-83
2021/05/07 10:39:29;;;;;;;6.23;2.87;;;8.30;92.00;;;;;;4999629;28;20206;-83
2021/05/07 10:41:58;;;;;;;3.80;3.27;;;8.40;93.30;;;;;;5004246;28;20209;-80
2021/05/07 10:44:28;;;;;;;4.67;3.00;;;8.50;93.00;;;;;;5005664;28;20612;-81
2021/05/07 10:47:06;;;;;;;3.17;2.97;;;8.60;93.10;;;;;;5007824;28;20202;-81
2021/05/07 10:49:34;;;;;;;3.47;2.90;;;8.80;92.30;;;;;;4999914;28;20214;-82
2021/05/07 10:52:02;;;;;;;2.97;2.70;;;9.00;91.50;;;;;;5000540;28;20924;-80
2021/05/07 10:54:38;;;;;;;2.60;2.40;;;9.10;91.60;;;;;;5004417;28;20205;-82
2021/05/07 10:57:18;;;;;;;2.57;2.37;;;9.30;89.80;;;;;;5007978;28;20210;-80
2021/05/07 10:59:53;;;;;;;3.07;2.77;;;9.60;90.60;;;;;;5005359;28;20256;-80
2021/05/07 11:02:22;;;;;;;2.80;2.60;;;10.10;88.90;;;;;;5018183;28;20204;-80
2021/05/07 11:04:50;;;;;;;2.97;2.40;;;10.60;90.20;;;;;;5018376;28;20217;-81
2021/05/07 11:07:25;;;;;;;2.67;2.47;;;11.10;85.80;;;;;;4999419;28;20298;-82
2021/05/07 11:10:01;;;;;;;2.60;2.23;;;11.10;86.50;;;;;;5007213;28;20502;-81
2021/05/07 11:12:28;;;;;;;2.50;2.23;;;11.20;85.60;;;;;;4998375;28;20230;-80
2021/05/07 11:14:56;;;;;;;2.77;1.90;;;11.20;85.00;;;;;;5009971;28;20218;-82
2021/05/07 11:17:24;;;;;;;2.20;2.00;;;11.40;84.40;;;;;;5001485;28;20210;-80
2021/05/07 11:19:53;;;;;;;2.00;1.90;;;11.60;84.30;;;;;;5008698;28;20244;-81
2021/05/07 11:22:25;;;;;;;2.60;2.23;;;11.80;83.70;;;;;;5007563;28;20206;-84
2021/05/07 11:24:53;;;;;;;2.27;2.13;;;11.40;83.30;;;;;;5007000;28;20202;-80
2021/05/07 11:27:22;;;;;;;2.60;2.40;;;11.30;83.30;;;;;;5012130;28;20195;-83
2021/05/07 11:29:52;;;;;;;2.90;2.40;;;11.30;83.80;;;;;;5002145;28;20210;-79
2021/05/07 11:32:22;;;;;;;2.63;2.40;;;11.20;83.30;;;;;;5010441;28;20328;-81
2021/05/07 11:34:52;;;;;;;2.77;2.57;;;11.10;83.70;;;;;;5015227;28;20230;-81
2021/05/07 11:37:20;;;;;;;3.30;3.00;;;11.30;83.90;;;;;;5016167;28;20270;-82
2021/05/07 11:39:56;;;;;;;3.00;2.70;;;11.50;84.00;;;;;;5024608;28;20502;-80
2021/05/07 11:42:28;;;;;;;3.40;2.80;;;11.40;83.50;;;;;;5005685;28;20523;-82
2021/05/07 11:44:56;;;;;;;3.63;3.23;;;11.20;83.20;;;;;;5019272;28;20387;-81
2021/05/07 11:47:28;;;;;;;2.93;2.73;;;10.80;83.70;;;;;;5033366;28;20340;-81
2021/05/07 11:49:57;;;;;;;3.23;2.93;;;10.50;83.50;;;;;;5028267;28;20203;-82
2021/05/07 11:52:36;;;;;;;5.13;3.10;;;10.60;84.10;;;;;;5020824;28;20444;-81
2021/05/07 11:55:05;;;;;;;3.67;3.37;;;10.70;85.10;;;;;;5036356;28;20273;-80
2021/05/07 11:57:34;;;;;;;3.27;3.03;;;10.80;84.10;;;;;;5024752;28;20267;-81
2021/05/07 12:00:02;;;;;;;2.87;2.67;;;11.00;84.60;;;;;;5013806;28;20552;-81
2021/05/07 12:02:32;;;;;;;6.30;2.70;;;11.30;85.20;;;;;;5014513;28;20230;-80
2021/05/07 12:05:04;;;;;;;5.13;2.80;;;11.70;85.00;;;;;;5015530;28;20295;-79
2021/05/07 12:07:37;;;;;;;3.60;3.30;;;12.10;84.20;;;;;;5010393;28;20198;-81
2021/05/07 12:10:06;;;;;;;5.27;4.03;;;12.20;83.10;;;;;;5014697;28;20273;-81
2021/05/07 12:12:41;;;;;;;2.80;2.60;;;12.20;83.40;;;;;;5007583;28;20258;-82
2021/05/07 12:15:12;;;;;;;3.40;2.70;;;12.10;83.10;;;;;;5014823;28;20264;-80
2021/05/07 12:17:42;;;;;;;5.70;4.20;;;11.90;83.20;;;;;;5006324;28;20209;-82
2021/05/07 12:20:13;;;;;;;3.80;3.50;;;11.70;83.50;;;;;;5008159;28;20206;-79
2021/05/07 12:22:41;;;;;;;3.90;3.60;;;11.20;83.60;;;;;;5009420;28;20209;-81
2021/05/07 12:25:10;;;;;;;3.57;3.23;;;10.90;84.30;;;;;;5009304;28;20257;-81
2021/05/07 12:27:44;;;;;;;4.17;3.60;;;10.80;85.00;;;;;;5002563;28;20320;-81
2021/05/07 12:30:25;;;;;;;3.63;3.33;;;10.80;85.20;;;;;;5010846;28;20462;-81
2021/05/07 12:32:57;;;;;;;3.37;3.13;;;10.80;85.10;;;;;;5007878;28;20797;-80
2021/05/07 12:35:46;;;;;;;3.13;2.90;;;10.80;85.00;;;;;;5010374;28;20377;-80
2021/05/07 12:38:29;;;;;;;4.27;3.30;;;11.00;84.70;;;;;;5009774;28;20210;-82
2021/05/07 12:40:59;;;;;;;3.70;3.40;;;11.10;83.50;;;;;;5004405;28;20206;-81
2021/05/07 12:43:29;;;;;;;3.40;3.03;;;11.00;83.50;;;;;;5011490;28;20614;-81
2021/05/07 12:45:56;;;;;;;3.70;3.40;;;11.00;83.60;;;;;;5008977;28;20222;-83
2021/05/07 12:48:47;;;;;;;3.43;3.20;;;10.90;83.30;;;;;;5002697;28;20304;-79
2021/05/07 12:51:16;;;;;;;3.90;2.80;;;10.90;83.10;;;;;;5004005;28;20296;-83
2021/05/07 12:53:44;;;;;;;3.00;2.80;;;11.00;82.90;;;;;;5009078;28;20680;-81
2021/05/07 12:56:13;;;;;;;3.40;3.20;;;10.80;83.00;;;;;;5006965;28;20538;-82